sensor_id;sensor_type;location;lat;lon;timestamp;temperature;humidity
14727;DHT22;7454;51.256;8.176;2023-04-01T00:00:32;9.10;81.20
14727;DHT22;7454;51.256;8.176;2023-04-01T00:02:58;9.10;81.20
14727;DHT22;7454;51.256;8.176;2023-04-01T00:05:23;9.10;81.30
14727;DHT22;7454;51.256;8.176;2023-04-01T00:07:54;9.10;81.30
14727;DHT22;7454;51.256;8.176;2023-04-01T00:10:20;9.10;81.20
14727;DHT22;7454;51.256;8.176;2023-04-01T00:12:46;9.00;81.40
14727;DHT22;7454;51.256;8.176;2023-04-01T00:15:11;9.10;81.30
14727;DHT22;7454;51.256;8.176;2023-04-01T00:17:37;9.00;81.60
14727;DHT22;7454;51.256;8.176;2023-04-01T00:20:04;9.00;81.40
14727;DHT22;7454;51.256;8.176;2023-04-01T00:22:32;9.00;81.30
14727;DHT22;7454;51.256;8.176;2023-04-01T00:24:59;9.00;81.20
14727;DHT22;7454;51.256;8.176;2023-04-01T00:27:24;9.00;81.10
14727;DHT22;7454;51.256;8.176;2023-04-01T00:29:50;9.00;81.00
14727;DHT22;7454;51.256;8.176;2023-04-01T00:32:16;9.00;81.10
14727;DHT22;7454;51.256;8.176;2023-04-01T00:34:41;9.00;81.30
14727;DHT22;7454;51.256;8.176;2023-04-01T00:37:07;9.00;81.30
14727;DHT22;7454;51.256;8.176;2023-04-01T00:39:33;9.00;81.10
14727;DHT22;7454;51.256;8.176;2023-04-01T00:41:59;9.00;81.10
14727;DHT22;7454;51.256;8.176;2023-04-01T00:44:33;9.00;81.20
14727;DHT22;7454;51.256;8.176;2023-04-01T00:46:59;9.00;81.40
14727;DHT22;7454;51.256;8.176;2023-04-01T00:49:39;9.00;81.20
14727;DHT22;7454;51.256;8.176;2023-04-01T00:52:06;9.10;81.30
14727;DHT22;7454;51.256;8.176;2023-04-01T00:54:34;9.10;81.10
14727;DHT22;7454;51.256;8.176;2023-04-01T00:57:05;9.00;81.00
14727;DHT22;7454;51.256;8.176;2023-04-01T00:59:40;9.00;81.10
14727;DHT22;7454;51.256;8.176;2023-04-01T01:02:10;9.00;81.20
14727;DHT22;7454;51.256;8.176;2023-04-01T01:04:37;9.00;81.20
14727;DHT22;7454;51.256;8.176;2023-04-01T01:15:36;9.00;81.20
14727;DHT22;7454;51.256;8.176;2023-04-01T01:34:36;8.90;81.10
14727;DHT22;7454;51.256;8.176;2023-04-01T01:37:11;9.00;81.10
14727;DHT22;7454;51.256;8.176;2023-04-01T01:39:39;8.90;81.10
14727;DHT22;7454;51.256;8.176;2023-04-01T01:42:07;8.90;81.20
14727;DHT22;7454;51.256;8.176;2023-04-01T01:44:35;8.90;81.30
14727;DHT22;7454;51.256;8.176;2023-04-01T01:47:02;9.10;81.50
14727;DHT22;7454;51.256;8.176;2023-04-01T01:49:28;8.90;81.20
14727;DHT22;7454;51.256;8.176;2023-04-01T01:51:56;8.90;81.30
14727;DHT22;7454;51.256;8.176;2023-04-01T01:54:22;8.90;81.20
14727;DHT22;7454;51.256;8.176;2023-04-01T01:56:49;8.90;81.30
14727;DHT22;7454;51.256;8.176;2023-04-01T01:59:19;8.90;81.10
14727;DHT22;7454;51.256;8.176;2023-04-01T02:01:48;8.90;81.20
14727;DHT22;7454;51.256;8.176;2023-04-01T02:04:15;8.90;81.30
14727;DHT22;7454;51.256;8.176;2023-04-01T02:06:44;8.80;81.20
14727;DHT22;7454;51.256;8.176;2023-04-01T02:09:13;8.80;81.40
14727;DHT22;7454;51.256;8.176;2023-04-01T02:14:16;8.80;81.30
14727;DHT22;7454;51.256;8.176;2023-04-01T02:16:45;8.80;81.10
14727;DHT22;7454;51.256;8.176;2023-04-01T02:19:22;8.80;81.20
14727;DHT22;7454;51.256;8.176;2023-04-01T02:21:53;8.80;81.20
14727;DHT22;7454;51.256;8.176;2023-04-01T02:24:21;8.90;81.30
14727;DHT22;7454;51.256;8.176;2023-04-01T02:26:50;8.80;81.40
14727;DHT22;7454;51.256;8.176;2023-04-01T02:29:16;8.80;81.40
14727;DHT22;7454;51.256;8.176;2023-04-01T02:31:45;8.80;81.40
14727;DHT22;7454;51.256;8.176;2023-04-01T02:34:11;8.90;81.30
14727;DHT22;7454;51.256;8.176;2023-04-01T02:36:37;8.90;81.30
14727;DHT22;7454;51.256;8.176;2023-04-01T02:39:04;8.80;81.30
14727;DHT22;7454;51.256;8.176;2023-04-01T02:41:30;8.80;81.20
14727;DHT22;7454;51.256;8.176;2023-04-01T02:43:56;8.70;81.30
14727;DHT22;7454;51.256;8.176;2023-04-01T02:46:24;8.80;81.30
14727;DHT22;7454;51.256;8.176;2023-04-01T02:48:50;8.80;81.40
14727;DHT22;7454;51.256;8.176;2023-04-01T02:51:16;8.80;81.30
14727;DHT22;7454;51.256;8.176;2023-04-01T02:53:41;8.80;81.30
14727;DHT22;7454;51.256;8.176;2023-04-01T02:56:07;8.80;81.30
14727;DHT22;7454;51.256;8.176;2023-04-01T02:58:33;8.80;81.30
14727;DHT22;7454;51.256;8.176;2023-04-01T03:00:59;8.80;81.20
14727;DHT22;7454;51.256;8.176;2023-04-01T03:03:24;8.80;81.40
14727;DHT22;7454;51.256;8.176;2023-04-01T03:05:50;8.80;81.30
14727;DHT22;7454;51.256;8.176;2023-04-01T03:08:17;8.80;81.30
14727;DHT22;7454;51.256;8.176;2023-04-01T03:10:43;8.80;81.40
14727;DHT22;7454;51.256;8.176;2023-04-01T03:13:09;8.80;81.40
14727;DHT22;7454;51.256;8.176;2023-04-01T03:15:35;8.80;81.30
14727;DHT22;7454;51.256;8.176;2023-04-01T03:18:01;8.80;81.20
14727;DHT22;7454;51.256;8.176;2023-04-01T03:20:26;8.70;81.00
14727;DHT22;7454;51.256;8.176;2023-04-01T03:22:52;8.70;81.20
14727;DHT22;7454;51.256;8.176;2023-04-01T03:25:18;8.70;81.10
14727;DHT22;7454;51.256;8.176;2023-04-01T03:27:44;8.80;81.20
14727;DHT22;7454;51.256;8.176;2023-04-01T03:30:10;8.80;80.90
14727;DHT22;7454;51.256;8.176;2023-04-01T03:32:43;8.70;80.90
14727;DHT22;7454;51.256;8.176;2023-04-01T03:35:09;8.70;80.90
14727;DHT22;7454;51.256;8.176;2023-04-01T03:37:35;8.70;81.20
14727;DHT22;7454;51.256;8.176;2023-04-01T03:40:01;8.70;81.20
14727;DHT22;7454;51.256;8.176;2023-04-01T03:42:27;8.70;81.30
14727;DHT22;7454;51.256;8.176;2023-04-01T03:44:53;8.70;81.20
14727;DHT22;7454;51.256;8.176;2023-04-01T03:47:18;8.60;81.10
14727;DHT22;7454;51.256;8.176;2023-04-01T03:49:44;8.60;81.30
14727;DHT22;7454;51.256;8.176;2023-04-01T03:52:10;8.70;81.20
14727;DHT22;7454;51.256;8.176;2023-04-01T03:54:36;8.60;81.10
14727;DHT22;7454;51.256;8.176;2023-04-01T03:57:02;8.60;81.30
14727;DHT22;7454;51.256;8.176;2023-04-01T03:59:28;8.60;81.20
14727;DHT22;7454;51.256;8.176;2023-04-01T04:01:54;8.60;81.30
14727;DHT22;7454;51.256;8.176;2023-04-01T04:04:20;8.60;81.40
14727;DHT22;7454;51.256;8.176;2023-04-01T04:06:46;8.60;81.40
14727;DHT22;7454;51.256;8.176;2023-04-01T04:09:11;8.60;81.60
14727;DHT22;7454;51.256;8.176;2023-04-01T04:11:37;8.50;81.40
14727;DHT22;7454;51.256;8.176;2023-04-01T04:14:03;8.60;81.30
14727;DHT22;7454;51.256;8.176;2023-04-01T04:16:29;8.50;81.30
14727;DHT22;7454;51.256;8.176;2023-04-01T04:18:58;8.50;81.50
14727;DHT22;7454;51.256;8.176;2023-04-01T04:21:24;8.60;81.70
14727;DHT22;7454;51.256;8.176;2023-04-01T04:23:50;8.50;81.20
14727;DHT22;7454;51.256;8.176;2023-04-01T04:26:18;8.60;81.40
14727;DHT22;7454;51.256;8.176;2023-04-01T04:28:51;8.60;81.50
14727;DHT22;7454;51.256;8.176;2023-04-01T04:31:18;8.60;81.50
14727;DHT22;7454;51.256;8.176;2023-04-01T04:33:46;8.60;81.60
14727;DHT22;7454;51.256;8.176;2023-04-01T04:36:12;8.60;81.60
14727;DHT22;7454;51.256;8.176;2023-04-01T04:38:38;8.60;81.60
14727;DHT22;7454;51.256;8.176;2023-04-01T04:41:08;8.60;81.10
14727;DHT22;7454;51.256;8.176;2023-04-01T04:43:39;8.60;81.20
14727;DHT22;7454;51.256;8.176;2023-04-01T04:46:06;8.50;81.40
14727;DHT22;7454;51.256;8.176;2023-04-01T04:48:33;8.50;81.30
14727;DHT22;7454;51.256;8.176;2023-04-01T04:50:59;8.60;81.50
14727;DHT22;7454;51.256;8.176;2023-04-01T04:53:24;8.50;81.50
14727;DHT22;7454;51.256;8.176;2023-04-01T04:55:51;8.60;81.50
14727;DHT22;7454;51.256;8.176;2023-04-01T04:58:27;8.60;81.30
14727;DHT22;7454;51.256;8.176;2023-04-01T05:00:53;8.50;81.50
14727;DHT22;7454;51.256;8.176;2023-04-01T05:03:26;8.60;81.40
14727;DHT22;7454;51.256;8.176;2023-04-01T05:05:53;8.60;81.60
14727;DHT22;7454;51.256;8.176;2023-04-01T05:08:19;8.60;81.40
14727;DHT22;7454;51.256;8.176;2023-04-01T05:10:45;8.50;81.40
14727;DHT22;7454;51.256;8.176;2023-04-01T05:13:11;8.60;81.70
14727;DHT22;7454;51.256;8.176;2023-04-01T05:15:38;8.50;81.70
14727;DHT22;7454;51.256;8.176;2023-04-01T05:18:04;8.50;81.90
14727;DHT22;7454;51.256;8.176;2023-04-01T05:20:29;8.60;81.90
14727;DHT22;7454;51.256;8.176;2023-04-01T05:22:56;8.60;81.90
14727;DHT22;7454;51.256;8.176;2023-04-01T05:25:26;8.50;81.70
14727;DHT22;7454;51.256;8.176;2023-04-01T05:27:52;8.50;81.90
14727;DHT22;7454;51.256;8.176;2023-04-01T05:30:18;8.50;81.90
14727;DHT22;7454;51.256;8.176;2023-04-01T05:33:03;8.60;81.90
14727;DHT22;7454;51.256;8.176;2023-04-01T05:35:29;8.60;82.00
14727;DHT22;7454;51.256;8.176;2023-04-01T05:37:54;8.60;82.00
14727;DHT22;7454;51.256;8.176;2023-04-01T05:40:23;8.70;82.00
14727;DHT22;7454;51.256;8.176;2023-04-01T05:42:48;8.60;82.00
14727;DHT22;7454;51.256;8.176;2023-04-01T05:45:15;8.60;81.80
14727;DHT22;7454;51.256;8.176;2023-04-01T05:48:07;8.60;82.00
14727;DHT22;7454;51.256;8.176;2023-04-01T05:50:39;8.60;82.00
14727;DHT22;7454;51.256;8.176;2023-04-01T05:53:07;8.60;82.40
14727;DHT22;7454;51.256;8.176;2023-04-01T05:55:35;8.60;82.10
14727;DHT22;7454;51.256;8.176;2023-04-01T05:58:02;8.60;82.10
14727;DHT22;7454;51.256;8.176;2023-04-01T06:00:28;8.60;82.30
14727;DHT22;7454;51.256;8.176;2023-04-01T06:02:58;8.60;82.00
14727;DHT22;7454;51.256;8.176;2023-04-01T06:05:26;8.60;82.30
14727;DHT22;7454;51.256;8.176;2023-04-01T06:07:55;8.60;82.30
14727;DHT22;7454;51.256;8.176;2023-04-01T06:10:29;8.60;82.30
14727;DHT22;7454;51.256;8.176;2023-04-01T06:13:10;8.70;82.40
14727;DHT22;7454;51.256;8.176;2023-04-01T06:15:59;8.70;82.40
14727;DHT22;7454;51.256;8.176;2023-04-01T06:26:55;8.70;82.40
14727;DHT22;7454;51.256;8.176;2023-04-01T06:30:16;8.70;82.10
14727;DHT22;7454;51.256;8.176;2023-04-01T06:41:18;8.80;82.50
14727;DHT22;7454;51.256;8.176;2023-04-01T06:43:51;8.80;82.60
14727;DHT22;7454;51.256;8.176;2023-04-01T06:47:13;8.80;82.30
14727;DHT22;7454;51.256;8.176;2023-04-01T06:50:20;8.80;82.10
14727;DHT22;7454;51.256;8.176;2023-04-01T06:56:08;8.90;82.20
14727;DHT22;7454;51.256;8.176;2023-04-01T06:59:08;9.00;82.30
14727;DHT22;7454;51.256;8.176;2023-04-01T07:01:38;9.00;82.50
14727;DHT22;7454;51.256;8.176;2023-04-01T07:04:14;9.00;82.10
14727;DHT22;7454;51.256;8.176;2023-04-01T07:06:46;9.00;81.90
14727;DHT22;7454;51.256;8.176;2023-04-01T07:09:27;9.00;82.20
14727;DHT22;7454;51.256;8.176;2023-04-01T07:12:25;9.00;82.00
14727;DHT22;7454;51.256;8.176;2023-04-01T07:18:10;9.10;81.90
14727;DHT22;7454;51.256;8.176;2023-04-01T07:20:39;9.20;82.40
14727;DHT22;7454;51.256;8.176;2023-04-01T07:23:11;9.20;82.40
14727;DHT22;7454;51.256;8.176;2023-04-01T07:25:54;9.30;82.40
14727;DHT22;7454;51.256;8.176;2023-04-01T07:28:29;9.30;81.80
14727;DHT22;7454;51.256;8.176;2023-04-01T07:36:47;9.50;82.40
14727;DHT22;7454;51.256;8.176;2023-04-01T07:39:19;9.60;82.40
14727;DHT22;7454;51.256;8.176;2023-04-01T07:42:24;9.60;81.90
14727;DHT22;7454;51.256;8.176;2023-04-01T07:48:00;9.60;82.10
14727;DHT22;7454;51.256;8.176;2023-04-01T07:53:36;9.60;81.70
14727;DHT22;7454;51.256;8.176;2023-04-01T07:56:10;9.60;81.60
14727;DHT22;7454;51.256;8.176;2023-04-01T08:04:34;9.70;82.10
14727;DHT22;7454;51.256;8.176;2023-04-01T08:07:30;9.70;81.80
14727;DHT22;7454;51.256;8.176;2023-04-01T08:17:18;9.70;82.20
14727;DHT22;7454;51.256;8.176;2023-04-01T08:22:38;9.70;82.00
14727;DHT22;7454;51.256;8.176;2023-04-01T08:25:19;9.80;82.50
14727;DHT22;7454;51.256;8.176;2023-04-01T08:30:50;9.90;82.20
14727;DHT22;7454;51.256;8.176;2023-04-01T08:33:24;9.90;82.10
14727;DHT22;7454;51.256;8.176;2023-04-01T08:36:03;10.00;82.30
14727;DHT22;7454;51.256;8.176;2023-04-01T08:49:45;10.10;82.20
14727;DHT22;7454;51.256;8.176;2023-04-01T08:52:56;10.10;82.20
14727;DHT22;7454;51.256;8.176;2023-04-01T09:12:41;10.10;81.90
14727;DHT22;7454;51.256;8.176;2023-04-01T09:18:36;10.10;82.20
14727;DHT22;7454;51.256;8.176;2023-04-01T09:21:15;10.00;82.00
14727;DHT22;7454;51.256;8.176;2023-04-01T09:26:34;10.10;82.20
14727;DHT22;7454;51.256;8.176;2023-04-01T09:29:28;10.10;82.40
14727;DHT22;7454;51.256;8.176;2023-04-01T09:40:42;10.20;81.90
14727;DHT22;7454;51.256;8.176;2023-04-01T09:57:18;10.20;82.20
14727;DHT22;7454;51.256;8.176;2023-04-01T10:22:55;10.30;81.70
14727;DHT22;7454;51.256;8.176;2023-04-01T10:40:03;10.30;82.40
14727;DHT22;7454;51.256;8.176;2023-04-01T10:45:57;10.40;82.20
14727;DHT22;7454;51.256;8.176;2023-04-01T10:51:16;10.40;81.90
14727;DHT22;7454;51.256;8.176;2023-04-01T10:56:56;10.40;82.70
14727;DHT22;7454;51.256;8.176;2023-04-01T11:06:20;10.30;82.00
14727;DHT22;7454;51.256;8.176;2023-04-01T11:12:06;10.30;82.80
14727;DHT22;7454;51.256;8.176;2023-04-01T11:23:22;10.40;83.20
14727;DHT22;7454;51.256;8.176;2023-04-01T11:26:08;10.40;83.30
14727;DHT22;7454;51.256;8.176;2023-04-01T11:40:45;10.60;82.70
14727;DHT22;7454;51.256;8.176;2023-04-01T11:43:41;10.70;82.50
14727;DHT22;7454;51.256;8.176;2023-04-01T11:46:56;10.80;82.40
14727;DHT22;7454;51.256;8.176;2023-04-01T11:49:47;10.80;82.30
14727;DHT22;7454;51.256;8.176;2023-04-01T11:52:40;10.90;82.20
14727;DHT22;7454;51.256;8.176;2023-04-01T12:01:17;10.80;81.80
14727;DHT22;7454;51.256;8.176;2023-04-01T12:12:51;10.80;82.00
14727;DHT22;7454;51.256;8.176;2023-04-01T12:15:35;10.80;82.00
14727;DHT22;7454;51.256;8.176;2023-04-01T12:35:19;11.00;82.10
14727;DHT22;7454;51.256;8.176;2023-04-01T12:37:50;11.00;81.50
14727;DHT22;7454;51.256;8.176;2023-04-01T12:46:11;10.80;81.40
14727;DHT22;7454;51.256;8.176;2023-04-01T12:54:27;10.80;81.40
14727;DHT22;7454;51.256;8.176;2023-04-01T12:57:42;10.90;81.40
14727;DHT22;7454;51.256;8.176;2023-04-01T13:06:19;10.70;81.20
14727;DHT22;7454;51.256;8.176;2023-04-01T13:11:59;10.70;81.40
14727;DHT22;7454;51.256;8.176;2023-04-01T13:15:07;10.70;81.40
14727;DHT22;7454;51.256;8.176;2023-04-01T13:20:28;10.60;81.80
14727;DHT22;7454;51.256;8.176;2023-04-01T13:23:01;10.70;81.80
14727;DHT22;7454;51.256;8.176;2023-04-01T13:25:51;10.60;81.70
14727;DHT22;7454;51.256;8.176;2023-04-01T13:28:25;10.60;81.80
14727;DHT22;7454;51.256;8.176;2023-04-01T13:42:14;10.60;82.80
14727;DHT22;7454;51.256;8.176;2023-04-01T13:47:23;10.60;82.10
14727;DHT22;7454;51.256;8.176;2023-04-01T14:01:24;10.60;82.60
14727;DHT22;7454;51.256;8.176;2023-04-01T14:15:33;10.70;82.20
14727;DHT22;7454;51.256;8.176;2023-04-01T14:24:05;10.70;82.60
14727;DHT22;7454;51.256;8.176;2023-04-01T14:34:34;10.70;81.50
14727;DHT22;7454;51.256;8.176;2023-04-01T14:43:10;10.70;81.60
14727;DHT22;7454;51.256;8.176;2023-04-01T14:45:54;10.70;82.10
14727;DHT22;7454;51.256;8.176;2023-04-01T14:48:38;10.70;81.80
14727;DHT22;7454;51.256;8.176;2023-04-01T14:51:18;10.70;81.60
14727;DHT22;7454;51.256;8.176;2023-04-01T14:53:54;10.70;81.80
14727;DHT22;7454;51.256;8.176;2023-04-01T14:56:41;10.70;82.00
14727;DHT22;7454;51.256;8.176;2023-04-01T15:01:50;10.80;82.20
14727;DHT22;7454;51.256;8.176;2023-04-01T15:10:05;10.80;81.50
14727;DHT22;7454;51.256;8.176;2023-04-01T15:23:50;10.60;81.60
14727;DHT22;7454;51.256;8.176;2023-04-01T15:29:20;10.50;81.90
14727;DHT22;7454;51.256;8.176;2023-04-01T15:48:01;10.60;81.10
14727;DHT22;7454;51.256;8.176;2023-04-01T15:50:42;10.60;81.30
14727;DHT22;7454;51.256;8.176;2023-04-01T15:53:27;10.70;81.40
14727;DHT22;7454;51.256;8.176;2023-04-01T15:56:22;10.70;81.60
14727;DHT22;7454;51.256;8.176;2023-04-01T15:59:20;10.70;81.60
14727;DHT22;7454;51.256;8.176;2023-04-01T16:04:54;10.80;81.50
14727;DHT22;7454;51.256;8.176;2023-04-01T16:11:29;10.70;81.10
14727;DHT22;7454;51.256;8.176;2023-04-01T16:16:46;10.70;81.60
14727;DHT22;7454;51.256;8.176;2023-04-01T16:22:48;10.70;81.70
14727;DHT22;7454;51.256;8.176;2023-04-01T16:25:20;10.70;81.70
14727;DHT22;7454;51.256;8.176;2023-04-01T16:30:54;10.60;81.70
14727;DHT22;7454;51.256;8.176;2023-04-01T16:33:31;10.60;81.60
14727;DHT22;7454;51.256;8.176;2023-04-01T16:36:24;10.50;81.60
14727;DHT22;7454;51.256;8.176;2023-04-01T16:44:31;10.50;81.70
14727;DHT22;7454;51.256;8.176;2023-04-01T16:47:14;10.50;81.70
14727;DHT22;7454;51.256;8.176;2023-04-01T16:49:53;10.40;81.60
14727;DHT22;7454;51.256;8.176;2023-04-01T16:52:36;10.40;81.50
14727;DHT22;7454;51.256;8.176;2023-04-01T16:55:52;10.40;81.60
14727;DHT22;7454;51.256;8.176;2023-04-01T16:58:07;10.40;81.90
14727;DHT22;7454;51.256;8.176;2023-04-01T17:00:41;10.40;81.80
14727;DHT22;7454;51.256;8.176;2023-04-01T17:03:15;10.30;81.60
14727;DHT22;7454;51.256;8.176;2023-04-01T17:11:18;10.30;81.70
14727;DHT22;7454;51.256;8.176;2023-04-01T17:16:56;10.20;81.80
14727;DHT22;7454;51.256;8.176;2023-04-01T17:19:48;10.20;81.80
14727;DHT22;7454;51.256;8.176;2023-04-01T17:22:23;10.20;82.00
14727;DHT22;7454;51.256;8.176;2023-04-01T17:30:19;10.10;82.10
14727;DHT22;7454;51.256;8.176;2023-04-01T17:35:39;10.00;82.00
14727;DHT22;7454;51.256;8.176;2023-04-01T17:38:13;10.10;82.10
14727;DHT22;7454;51.256;8.176;2023-04-01T17:41:08;10.00;82.10
14727;DHT22;7454;51.256;8.176;2023-04-01T17:44:02;10.00;82.10
14727;DHT22;7454;51.256;8.176;2023-04-01T17:49:33;10.00;82.30
14727;DHT22;7454;51.256;8.176;2023-04-01T18:00:18;10.00;82.50
14727;DHT22;7454;51.256;8.176;2023-04-01T18:02:54;10.00;82.50
14727;DHT22;7454;51.256;8.176;2023-04-01T18:08:23;10.00;82.30
14727;DHT22;7454;51.256;8.176;2023-04-01T18:11:00;10.00;82.20
14727;DHT22;7454;51.256;8.176;2023-04-01T18:16:32;10.00;82.20
14727;DHT22;7454;51.256;8.176;2023-04-01T18:21:49;10.00;82.70
14727;DHT22;7454;51.256;8.176;2023-04-01T18:24:28;10.00;82.50
14727;DHT22;7454;51.256;8.176;2023-04-01T18:27:01;10.00;82.50
14727;DHT22;7454;51.256;8.176;2023-04-01T18:32:07;9.90;82.50
14727;DHT22;7454;51.256;8.176;2023-04-01T18:35:02;10.00;82.80
14727;DHT22;7454;51.256;8.176;2023-04-01T18:40:34;9.90;82.80
14727;DHT22;7454;51.256;8.176;2023-04-01T18:43:09;9.90;82.80
14727;DHT22;7454;51.256;8.176;2023-04-01T18:45:50;9.90;82.60
14727;DHT22;7454;51.256;8.176;2023-04-01T18:54:44;9.90;82.60
14727;DHT22;7454;51.256;8.176;2023-04-01T18:57:13;9.90;82.70
14727;DHT22;7454;51.256;8.176;2023-04-01T18:59:41;9.80;82.60
14727;DHT22;7454;51.256;8.176;2023-04-01T19:02:30;9.80;83.10
14727;DHT22;7454;51.256;8.176;2023-04-01T19:05:09;9.80;83.20
14727;DHT22;7454;51.256;8.176;2023-04-01T19:20:51;9.70;82.50
14727;DHT22;7454;51.256;8.176;2023-04-01T19:26:14;9.70;82.60
14727;DHT22;7454;51.256;8.176;2023-04-01T19:39:02;9.70;83.00
14727;DHT22;7454;51.256;8.176;2023-04-01T19:41:33;9.70;82.60
14727;DHT22;7454;51.256;8.176;2023-04-01T19:53:55;9.70;83.00
14727;DHT22;7454;51.256;8.176;2023-04-01T20:01:46;9.70;82.90
14727;DHT22;7454;51.256;8.176;2023-04-01T20:04:21;9.70;82.90
14727;DHT22;7454;51.256;8.176;2023-04-01T20:07:07;9.70;82.60
14727;DHT22;7454;51.256;8.176;2023-04-01T20:09:58;9.70;82.40
14727;DHT22;7454;51.256;8.176;2023-04-01T20:15:23;9.80;82.70
14727;DHT22;7454;51.256;8.176;2023-04-01T20:17:56;9.80;82.80
14727;DHT22;7454;51.256;8.176;2023-04-01T20:20:24;9.70;82.60
14727;DHT22;7454;51.256;8.176;2023-04-01T20:30:38;9.70;82.70
14727;DHT22;7454;51.256;8.176;2023-04-01T20:47:42;9.70;82.80
14727;DHT22;7454;51.256;8.176;2023-04-01T20:50:27;9.70;82.80
14727;DHT22;7454;51.256;8.176;2023-04-01T20:53:04;9.70;83.00
14727;DHT22;7454;51.256;8.176;2023-04-01T21:06:53;9.70;82.70
14727;DHT22;7454;51.256;8.176;2023-04-01T21:12:35;9.70;82.70
14727;DHT22;7454;51.256;8.176;2023-04-01T21:18:17;9.70;82.60
14727;DHT22;7454;51.256;8.176;2023-04-01T21:23:56;9.70;82.80
14727;DHT22;7454;51.256;8.176;2023-04-01T21:26:58;9.70;82.50
14727;DHT22;7454;51.256;8.176;2023-04-01T21:32:12;9.70;82.50
14727;DHT22;7454;51.256;8.176;2023-04-01T21:45:34;9.70;82.70
14727;DHT22;7454;51.256;8.176;2023-04-01T21:53:42;9.70;82.60
14727;DHT22;7454;51.256;8.176;2023-04-01T21:56:16;9.70;83.00
14727;DHT22;7454;51.256;8.176;2023-04-01T21:59:09;9.70;83.10
14727;DHT22;7454;51.256;8.176;2023-04-01T22:07:18;9.60;82.80
14727;DHT22;7454;51.256;8.176;2023-04-01T22:09:56;9.60;83.00
14727;DHT22;7454;51.256;8.176;2023-04-01T22:13:06;9.60;82.90
14727;DHT22;7454;51.256;8.176;2023-04-01T22:18:21;9.70;82.70
14727;DHT22;7454;51.256;8.176;2023-04-01T22:28:58;9.60;83.00
14727;DHT22;7454;51.256;8.176;2023-04-01T22:31:44;9.60;83.10
14727;DHT22;7454;51.256;8.176;2023-04-01T22:34:21;9.60;83.50
14727;DHT22;7454;51.256;8.176;2023-04-01T22:37:00;9.60;83.50
14727;DHT22;7454;51.256;8.176;2023-04-01T22:42:38;9.50;83.50
14727;DHT22;7454;51.256;8.176;2023-04-01T22:45:17;9.50;83.20
14727;DHT22;7454;51.256;8.176;2023-04-01T22:47:52;9.50;83.70
14727;DHT22;7454;51.256;8.176;2023-04-01T22:50:58;9.50;83.70
14727;DHT22;7454;51.256;8.176;2023-04-01T22:56:28;9.40;83.80
14727;DHT22;7454;51.256;8.176;2023-04-01T22:59:13;9.40;83.70
14727;DHT22;7454;51.256;8.176;2023-04-01T23:01:45;9.40;84.30
14727;DHT22;7454;51.256;8.176;2023-04-01T23:04:15;9.40;84.50
14727;DHT22;7454;51.256;8.176;2023-04-01T23:06:43;9.40;84.50
14727;DHT22;7454;51.256;8.176;2023-04-01T23:09:17;9.40;84.00
14727;DHT22;7454;51.256;8.176;2023-04-01T23:12:04;9.40;84.40
14727;DHT22;7454;51.256;8.176;2023-04-01T23:17:16;9.40;83.90
14727;DHT22;7454;51.256;8.176;2023-04-01T23:22:51;9.40;84.20
14727;DHT22;7454;51.256;8.176;2023-04-01T23:25:24;9.40;84.40
14727;DHT22;7454;51.256;8.176;2023-04-01T23:27:59;9.50;84.50
14727;DHT22;7454;51.256;8.176;2023-04-01T23:30:48;9.50;84.40
14727;DHT22;7454;51.256;8.176;2023-04-01T23:35:51;9.40;82.40
14727;DHT22;7454;51.256;8.176;2023-04-01T23:38:21;9.30;82.10
14727;DHT22;7454;51.256;8.176;2023-04-01T23:40:49;9.20;81.80
14727;DHT22;7454;51.256;8.176;2023-04-01T23:46:11;9.10;81.60
14727;DHT22;7454;51.256;8.176;2023-04-01T23:48:40;8.90;81.50
14727;DHT22;7454;51.256;8.176;2023-04-01T23:53:41;8.80;81.60
14727;DHT22;7454;51.256;8.176;2023-04-01T23:56:10;8.70;81.40
